Airfield :
LOGIN :

Register | Disclaimer

   EN    FR    IT 

 










Legend :    VFR   Marginal VFR   IFR   Intensive IFR   Very Intensive IFR
Visi :
Ceiling :
>= 8 km
>= 3000ft
5 to 8 km
1000 to 3000 ft
1500m to 5 km
500 to 1000 ft
800 to 1500m
200 to 500 ft
< 800m
< 200 ft
Symbols :   Thunderstorms  Fog  Heavy snow  Heavy precipitations  Wind > 20 kt
SIGMETs :     Misc.  Thunderstorms  Icing  Turbulence  Mountain Waves  Volcanic Ashes







- Airport Elevation : 256 ft
- IATA code : CFR
- Download approach charts


LFRK - Caen

CURRENT METAR :
  • 191900Z AUTO 04009KT 340V070 CAVOK 16/11 Q1027 TEMPO 07015G25KT

EXPIRED METARs :
  • 191830Z AUTO 04011KT 010V080 CAVOK 16/11 Q1027 TEMPO 07015G25KT
  • 191800Z AUTO 04011KT 360V060 CAVOK 16/12 Q1027 TEMPO 07015G25KT
  • 191730Z AUTO 03012KT 010V070 CAVOK 17/12 Q1027 TEMPO 07015G25KT
  • 191700Z AUTO 03012KT 360V070 CAVOK 17/11 Q1027 TEMPO 07015G25KT
  • 191630Z AUTO 03013KT 360V060 CAVOK 18/10 Q1027 TEMPO 07015G25KT

TAF TAF LFRK
Valid from the 19 at 15:00 until the 20 at 00:00 UTC


191400Z 1915/1924 07015KT CAVOK
TEMPO 1915/1921 07015G25KT
Met : +33 2 31 26 68 11
No reported NOTAMs for that airfield.



MET'MAP, your aeronautical weather chart ! - Copyright ORBIFLY December 2007 - Disclaimer

ORBIFLY MET'MAP TEAM :

Programming & Development : Alexandra Zaïnal
Concept & Development : Baudouin d'Aumeries
Co-Development & Prog : Marc-Olivier Méhu
Technical & hardware support : Manuel Goepfert

Contact : metmap@orbifly.com




SOURCES & CREDITS :

   NOAA